sensor_id;sensor_type;location;lat;lon;timestamp;P1;durP1;ratioP1;P2;durP2;ratioP2
68256;SDS011;55069;51.568;4.656;2022-09-09T00:04:31;5.45;;;2.22;;
68256;SDS011;55069;51.568;4.656;2022-09-09T00:07:13;3.73;;;1.87;;
68256;SDS011;55069;51.568;4.656;2022-09-09T00:15:07;8.67;;;2.20;;
68256;SDS011;55069;51.568;4.656;2022-09-09T00:23:09;6.63;;;2.95;;
68256;SDS011;55069;51.568;4.656;2022-09-09T00:25:37;5.73;;;2.57;;
68256;SDS011;55069;51.568;4.656;2022-09-09T00:28:20;8.35;;;3.30;;
68256;SDS011;55069;51.568;4.656;2022-09-09T00:30:49;5.85;;;2.88;;
68256;SDS011;55069;51.568;4.656;2022-09-09T00:33:19;7.13;;;3.70;;
68256;SDS011;55069;51.568;4.656;2022-09-09T00:35:52;6.75;;;3.20;;
68256;SDS011;55069;51.568;4.656;2022-09-09T00:38:23;7.90;;;3.97;;
68256;SDS011;55069;51.568;4.656;2022-09-09T00:41:48;8.10;;;3.05;;
68256;SDS011;55069;51.568;4.656;2022-09-09T00:44:17;10.18;;;3.75;;
68256;SDS011;55069;51.568;4.656;2022-09-09T00:49:44;9.32;;;3.53;;
68256;SDS011;55069;51.568;4.656;2022-09-09T00:58:09;11.18;;;3.88;;
68256;SDS011;55069;51.568;4.656;2022-09-09T01:05:44;11.68;;;3.35;;
68256;SDS011;55069;51.568;4.656;2022-09-09T01:11:07;6.47;;;3.33;;
68256;SDS011;55069;51.568;4.656;2022-09-09T01:13:37;8.60;;;3.70;;
68256;SDS011;55069;51.568;4.656;2022-09-09T01:16:08;8.13;;;3.20;;
68256;SDS011;55069;51.568;4.656;2022-09-09T01:18:41;7.78;;;3.30;;
68256;SDS011;55069;51.568;4.656;2022-09-09T01:21:17;6.68;;;3.15;;
68256;SDS011;55069;51.568;4.656;2022-09-09T01:24:05;7.03;;;2.50;;
68256;SDS011;55069;51.568;4.656;2022-09-09T01:26:54;6.22;;;2.42;;
68256;SDS011;55069;51.568;4.656;2022-09-09T01:29:25;5.15;;;2.65;;
68256;SDS011;55069;51.568;4.656;2022-09-09T01:34:34;7.95;;;2.78;;
68256;SDS011;55069;51.568;4.656;2022-09-09T01:37:05;6.68;;;3.03;;
68256;SDS011;55069;51.568;4.656;2022-09-09T01:39:33;4.03;;;2.40;;
68256;SDS011;55069;51.568;4.656;2022-09-09T01:42:04;6.78;;;2.47;;
68256;SDS011;55069;51.568;4.656;2022-09-09T01:44:31;8.10;;;2.60;;
68256;SDS011;55069;51.568;4.656;2022-09-09T01:46:59;9.30;;;2.30;;
68256;SDS011;55069;51.568;4.656;2022-09-09T01:49:25;8.75;;;2.97;;
68256;SDS011;55069;51.568;4.656;2022-09-09T01:51:52;7.23;;;2.60;;
68256;SDS011;55069;51.568;4.656;2022-09-09T01:54:25;6.47;;;2.20;;
68256;SDS011;55069;51.568;4.656;2022-09-09T02:00:06;9.18;;;2.42;;
68256;SDS011;55069;51.568;4.656;2022-09-09T02:08:16;7.10;;;2.13;;
68256;SDS011;55069;51.568;4.656;2022-09-09T02:10:56;6.10;;;1.90;;
68256;SDS011;55069;51.568;4.656;2022-09-09T02:13:48;4.65;;;1.65;;
68256;SDS011;55069;51.568;4.656;2022-09-09T02:19:16;4.80;;;1.67;;
68256;SDS011;55069;51.568;4.656;2022-09-09T02:22:05;6.40;;;1.98;;
68256;SDS011;55069;51.568;4.656;2022-09-09T02:24:32;5.70;;;1.65;;
68256;SDS011;55069;51.568;4.656;2022-09-09T02:27:14;8.75;;;2.05;;
68256;SDS011;55069;51.568;4.656;2022-09-09T02:29:43;6.15;;;2.03;;
68256;SDS011;55069;51.568;4.656;2022-09-09T02:32:14;5.15;;;2.00;;
68256;SDS011;55069;51.568;4.656;2022-09-09T02:34:43;7.82;;;2.00;;
68256;SDS011;55069;51.568;4.656;2022-09-09T02:37:13;9.97;;;2.13;;
68256;SDS011;55069;51.568;4.656;2022-09-09T02:39:46;3.70;;;1.50;;
68256;SDS011;55069;51.568;4.656;2022-09-09T02:42:14;12.13;;;2.53;;
68256;SDS011;55069;51.568;4.656;2022-09-09T02:44:41;6.68;;;1.60;;
68256;SDS011;55069;51.568;4.656;2022-09-09T02:47:16;5.20;;;1.92;;
68256;SDS011;55069;51.568;4.656;2022-09-09T02:52:54;5.50;;;2.35;;
68256;SDS011;55069;51.568;4.656;2022-09-09T02:58:15;4.93;;;2.47;;
68256;SDS011;55069;51.568;4.656;2022-09-09T03:00:50;6.78;;;2.83;;
68256;SDS011;55069;51.568;4.656;2022-09-09T03:03:18;5.60;;;2.07;;
68256;SDS011;55069;51.568;4.656;2022-09-09T03:05:47;9.43;;;2.72;;
68256;SDS011;55069;51.568;4.656;2022-09-09T03:08:12;7.20;;;3.20;;
68256;SDS011;55069;51.568;4.656;2022-09-09T03:10:39;9.70;;;2.60;;
68256;SDS011;55069;51.568;4.656;2022-09-09T03:13:05;11.00;;;3.00;;
68256;SDS011;55069;51.568;4.656;2022-09-09T03:15:34;10.75;;;2.30;;
68256;SDS011;55069;51.568;4.656;2022-09-09T03:18:00;6.20;;;2.53;;
68256;SDS011;55069;51.568;4.656;2022-09-09T03:20:27;10.82;;;2.70;;
68256;SDS011;55069;51.568;4.656;2022-09-09T03:22:54;5.87;;;2.70;;
68256;SDS011;55069;51.568;4.656;2022-09-09T03:25:21;11.55;;;3.30;;
68256;SDS011;55069;51.568;4.656;2022-09-09T03:27:49;7.68;;;3.05;;
68256;SDS011;55069;51.568;4.656;2022-09-09T03:30:21;6.65;;;2.83;;
68256;SDS011;55069;51.568;4.656;2022-09-09T03:32:50;5.65;;;2.30;;
68256;SDS011;55069;51.568;4.656;2022-09-09T03:35:16;6.80;;;2.40;;
68256;SDS011;55069;51.568;4.656;2022-09-09T03:37:42;9.40;;;2.80;;
68256;SDS011;55069;51.568;4.656;2022-09-09T03:40:09;8.48;;;2.58;;
68256;SDS011;55069;51.568;4.656;2022-09-09T03:42:36;9.85;;;2.70;;
68256;SDS011;55069;51.568;4.656;2022-09-09T03:45:06;9.27;;;3.00;;
68256;SDS011;55069;51.568;4.656;2022-09-09T03:47:35;9.63;;;3.25;;
68256;SDS011;55069;51.568;4.656;2022-09-09T03:50:04;7.43;;;2.78;;
68256;SDS011;55069;51.568;4.656;2022-09-09T03:52:40;11.00;;;2.97;;
68256;SDS011;55069;51.568;4.656;2022-09-09T03:55:12;6.07;;;2.60;;
68256;SDS011;55069;51.568;4.656;2022-09-09T03:57:37;5.83;;;2.03;;
68256;SDS011;55069;51.568;4.656;2022-09-09T04:00:07;7.00;;;2.38;;
68256;SDS011;55069;51.568;4.656;2022-09-09T04:02:41;7.83;;;2.57;;
68256;SDS011;55069;51.568;4.656;2022-09-09T04:05:09;9.40;;;2.72;;
68256;SDS011;55069;51.568;4.656;2022-09-09T04:07:36;8.15;;;2.83;;
68256;SDS011;55069;51.568;4.656;2022-09-09T04:10:02;12.00;;;2.00;;
68256;SDS011;55069;51.568;4.656;2022-09-09T04:12:28;12.68;;;2.80;;
68256;SDS011;55069;51.568;4.656;2022-09-09T04:14:54;7.63;;;2.47;;
68256;SDS011;55069;51.568;4.656;2022-09-09T04:17:20;11.30;;;3.30;;
68256;SDS011;55069;51.568;4.656;2022-09-09T04:19:45;12.38;;;2.47;;
68256;SDS011;55069;51.568;4.656;2022-09-09T04:22:12;8.87;;;2.47;;
68256;SDS011;55069;51.568;4.656;2022-09-09T04:24:37;7.60;;;2.50;;
68256;SDS011;55069;51.568;4.656;2022-09-09T04:27:03;11.67;;;2.70;;
68256;SDS011;55069;51.568;4.656;2022-09-09T04:29:30;10.68;;;3.40;;
68256;SDS011;55069;51.568;4.656;2022-09-09T04:31:55;12.27;;;3.08;;
68256;SDS011;55069;51.568;4.656;2022-09-09T04:34:21;6.67;;;2.20;;
68256;SDS011;55069;51.568;4.656;2022-09-09T04:36:47;12.30;;;3.30;;
68256;SDS011;55069;51.568;4.656;2022-09-09T04:39:12;13.50;;;3.30;;
68256;SDS011;55069;51.568;4.656;2022-09-09T04:41:38;10.87;;;2.67;;
68256;SDS011;55069;51.568;4.656;2022-09-09T04:44:04;10.32;;;2.83;;
68256;SDS011;55069;51.568;4.656;2022-09-09T04:46:31;15.55;;;3.42;;
68256;SDS011;55069;51.568;4.656;2022-09-09T04:48:59;14.25;;;3.15;;
68256;SDS011;55069;51.568;4.656;2022-09-09T04:51:29;12.00;;;2.90;;
68256;SDS011;55069;51.568;4.656;2022-09-09T04:53:56;11.85;;;2.83;;
68256;SDS011;55069;51.568;4.656;2022-09-09T04:56:22;15.68;;;3.78;;
68256;SDS011;55069;51.568;4.656;2022-09-09T04:58:54;12.25;;;4.38;;
68256;SDS011;55069;51.568;4.656;2022-09-09T05:01:23;13.03;;;3.53;;
68256;SDS011;55069;51.568;4.656;2022-09-09T05:03:51;10.43;;;2.53;;
68256;SDS011;55069;51.568;4.656;2022-09-09T05:06:21;13.65;;;2.70;;
68256;SDS011;55069;51.568;4.656;2022-09-09T05:08:50;10.57;;;2.92;;
68256;SDS011;55069;51.568;4.656;2022-09-09T05:11:20;13.32;;;3.38;;
68256;SDS011;55069;51.568;4.656;2022-09-09T05:13:53;14.50;;;3.23;;
68256;SDS011;55069;51.568;4.656;2022-09-09T05:16:20;11.88;;;2.83;;
68256;SDS011;55069;51.568;4.656;2022-09-09T05:18:46;11.20;;;3.60;;
68256;SDS011;55069;51.568;4.656;2022-09-09T05:21:12;17.98;;;3.65;;
68256;SDS011;55069;51.568;4.656;2022-09-09T05:23:39;12.37;;;3.07;;
68256;SDS011;55069;51.568;4.656;2022-09-09T05:26:05;10.35;;;3.33;;
68256;SDS011;55069;51.568;4.656;2022-09-09T05:28:34;17.08;;;3.38;;
68256;SDS011;55069;51.568;4.656;2022-09-09T05:31:04;11.02;;;2.75;;
68256;SDS011;55069;51.568;4.656;2022-09-09T05:33:33;13.37;;;2.87;;
68256;SDS011;55069;51.568;4.656;2022-09-09T05:36:04;11.25;;;2.95;;
68256;SDS011;55069;51.568;4.656;2022-09-09T05:38:32;13.23;;;3.00;;
68256;SDS011;55069;51.568;4.656;2022-09-09T05:40:59;13.95;;;3.47;;
68256;SDS011;55069;51.568;4.656;2022-09-09T05:43:25;12.93;;;2.88;;
68256;SDS011;55069;51.568;4.656;2022-09-09T05:45:59;11.53;;;2.90;;
68256;SDS011;55069;51.568;4.656;2022-09-09T05:48:37;16.35;;;3.00;;
68256;SDS011;55069;51.568;4.656;2022-09-09T05:51:04;9.45;;;2.78;;
68256;SDS011;55069;51.568;4.656;2022-09-09T05:53:34;10.68;;;3.05;;
68256;SDS011;55069;51.568;4.656;2022-09-09T05:56:01;13.32;;;3.22;;
68256;SDS011;55069;51.568;4.656;2022-09-09T05:58:33;12.10;;;2.77;;
68256;SDS011;55069;51.568;4.656;2022-09-09T06:01:01;13.75;;;3.45;;
68256;SDS011;55069;51.568;4.656;2022-09-09T06:03:35;16.98;;;2.85;;
68256;SDS011;55069;51.568;4.656;2022-09-09T06:06:06;12.45;;;2.70;;
68256;SDS011;55069;51.568;4.656;2022-09-09T06:08:34;11.00;;;2.42;;
68256;SDS011;55069;51.568;4.656;2022-09-09T06:11:08;8.23;;;2.30;;
68256;SDS011;55069;51.568;4.656;2022-09-09T06:13:38;15.23;;;2.95;;
68256;SDS011;55069;51.568;4.656;2022-09-09T06:16:12;16.20;;;2.95;;
68256;SDS011;55069;51.568;4.656;2022-09-09T06:18:40;15.65;;;3.22;;
68256;SDS011;55069;51.568;4.656;2022-09-09T06:21:06;11.18;;;2.75;;
68256;SDS011;55069;51.568;4.656;2022-09-09T06:23:36;11.73;;;2.57;;
68256;SDS011;55069;51.568;4.656;2022-09-09T06:26:06;10.10;;;2.60;;
68256;SDS011;55069;51.568;4.656;2022-09-09T06:28:39;17.17;;;2.70;;
68256;SDS011;55069;51.568;4.656;2022-09-09T06:31:08;13.50;;;2.90;;
68256;SDS011;55069;51.568;4.656;2022-09-09T06:33:36;11.77;;;2.33;;
68256;SDS011;55069;51.568;4.656;2022-09-09T06:36:16;13.30;;;2.65;;
68256;SDS011;55069;51.568;4.656;2022-09-09T06:38:44;12.80;;;2.40;;
68256;SDS011;55069;51.568;4.656;2022-09-09T06:41:12;10.45;;;2.33;;
68256;SDS011;55069;51.568;4.656;2022-09-09T06:43:41;8.65;;;2.67;;
68256;SDS011;55069;51.568;4.656;2022-09-09T06:46:11;15.33;;;2.50;;
68256;SDS011;55069;51.568;4.656;2022-09-09T06:48:39;10.57;;;2.60;;
68256;SDS011;55069;51.568;4.656;2022-09-09T06:51:20;11.40;;;2.70;;
68256;SDS011;55069;51.568;4.656;2022-09-09T06:53:49;10.05;;;2.42;;
68256;SDS011;55069;51.568;4.656;2022-09-09T06:58:44;10.90;;;2.30;;
68256;SDS011;55069;51.568;4.656;2022-09-09T07:01:14;10.45;;;2.40;;
68256;SDS011;55069;51.568;4.656;2022-09-09T07:03:42;12.88;;;2.30;;
68256;SDS011;55069;51.568;4.656;2022-09-09T07:06:29;16.65;;;3.53;;
68256;SDS011;55069;51.568;4.656;2022-09-09T07:09:04;10.77;;;2.78;;
68256;SDS011;55069;51.568;4.656;2022-09-09T07:11:33;9.73;;;2.43;;
68256;SDS011;55069;51.568;4.656;2022-09-09T07:14:02;7.72;;;2.50;;
68256;SDS011;55069;51.568;4.656;2022-09-09T07:16:28;10.35;;;2.92;;
68256;SDS011;55069;51.568;4.656;2022-09-09T07:18:57;12.15;;;3.13;;
68256;SDS011;55069;51.568;4.656;2022-09-09T07:21:26;12.85;;;2.63;;
68256;SDS011;55069;51.568;4.656;2022-09-09T07:23:53;8.82;;;2.10;;
68256;SDS011;55069;51.568;4.656;2022-09-09T07:26:20;12.60;;;2.87;;
68256;SDS011;55069;51.568;4.656;2022-09-09T07:28:47;12.00;;;1.90;;
68256;SDS011;55069;51.568;4.656;2022-09-09T07:31:14;12.40;;;2.80;;
68256;SDS011;55069;51.568;4.656;2022-09-09T07:33:42;15.57;;;2.70;;
68256;SDS011;55069;51.568;4.656;2022-09-09T07:36:19;17.33;;;2.83;;
68256;SDS011;55069;51.568;4.656;2022-09-09T07:38:48;11.40;;;2.10;;
68256;SDS011;55069;51.568;4.656;2022-09-09T07:41:19;11.43;;;3.03;;
68256;SDS011;55069;51.568;4.656;2022-09-09T07:43:49;8.40;;;2.45;;
68256;SDS011;55069;51.568;4.656;2022-09-09T07:46:16;10.65;;;2.28;;
68256;SDS011;55069;51.568;4.656;2022-09-09T07:48:44;6.55;;;1.95;;
68256;SDS011;55069;51.568;4.656;2022-09-09T07:51:12;16.20;;;3.10;;
68256;SDS011;55069;51.568;4.656;2022-09-09T07:53:42;11.93;;;2.28;;
68256;SDS011;55069;51.568;4.656;2022-09-09T07:56:10;11.48;;;2.45;;
68256;SDS011;55069;51.568;4.656;2022-09-09T07:58:39;11.90;;;2.25;;
68256;SDS011;55069;51.568;4.656;2022-09-09T08:01:09;12.40;;;2.00;;
68256;SDS011;55069;51.568;4.656;2022-09-09T08:03:39;7.13;;;2.00;;
68256;SDS011;55069;51.568;4.656;2022-09-09T08:06:06;8.60;;;2.00;;
68256;SDS011;55069;51.568;4.656;2022-09-09T08:08:34;10.02;;;2.30;;
68256;SDS011;55069;51.568;4.656;2022-09-09T08:11:05;7.53;;;2.60;;
68256;SDS011;55069;51.568;4.656;2022-09-09T08:13:42;8.90;;;2.65;;
68256;SDS011;55069;51.568;4.656;2022-09-09T08:16:11;12.88;;;2.58;;
68256;SDS011;55069;51.568;4.656;2022-09-09T08:18:39;14.10;;;2.38;;
68256;SDS011;55069;51.568;4.656;2022-09-09T08:21:07;11.52;;;2.63;;
68256;SDS011;55069;51.568;4.656;2022-09-09T08:23:38;16.00;;;2.53;;
68256;SDS011;55069;51.568;4.656;2022-09-09T08:26:08;8.93;;;2.15;;
68256;SDS011;55069;51.568;4.656;2022-09-09T08:28:38;13.23;;;2.78;;
68256;SDS011;55069;51.568;4.656;2022-09-09T08:31:06;12.00;;;2.47;;
68256;SDS011;55069;51.568;4.656;2022-09-09T08:33:36;16.02;;;2.60;;
68256;SDS011;55069;51.568;4.656;2022-09-09T08:36:05;9.20;;;2.10;;
68256;SDS011;55069;51.568;4.656;2022-09-09T08:38:32;10.88;;;2.15;;
68256;SDS011;55069;51.568;4.656;2022-09-09T08:41:03;11.75;;;1.98;;
68256;SDS011;55069;51.568;4.656;2022-09-09T08:43:39;14.35;;;2.70;;
68256;SDS011;55069;51.568;4.656;2022-09-09T08:46:14;12.18;;;2.55;;
68256;SDS011;55069;51.568;4.656;2022-09-09T08:49:02;12.03;;;2.30;;
68256;SDS011;55069;51.568;4.656;2022-09-09T08:51:40;5.47;;;1.95;;
68256;SDS011;55069;51.568;4.656;2022-09-09T08:54:08;12.25;;;2.30;;
68256;SDS011;55069;51.568;4.656;2022-09-09T08:56:35;10.23;;;2.95;;
68256;SDS011;55069;51.568;4.656;2022-09-09T08:59:02;13.07;;;2.15;;
68256;SDS011;55069;51.568;4.656;2022-09-09T09:01:44;12.57;;;2.50;;
68256;SDS011;55069;51.568;4.656;2022-09-09T09:05:01;8.93;;;1.98;;
68256;SDS011;55069;51.568;4.656;2022-09-09T09:12:52;11.00;;;2.00;;
68256;SDS011;55069;51.568;4.656;2022-09-09T09:15:23;11.93;;;2.23;;
68256;SDS011;55069;51.568;4.656;2022-09-09T09:17:53;6.93;;;1.73;;
68256;SDS011;55069;51.568;4.656;2022-09-09T09:20:21;10.05;;;2.08;;
68256;SDS011;55069;51.568;4.656;2022-09-09T09:23:04;9.43;;;1.98;;
68256;SDS011;55069;51.568;4.656;2022-09-09T09:25:38;6.15;;;2.00;;
68256;SDS011;55069;51.568;4.656;2022-09-09T09:28:16;8.30;;;2.30;;
68256;SDS011;55069;51.568;4.656;2022-09-09T09:33:23;9.45;;;2.33;;
68256;SDS011;55069;51.568;4.656;2022-09-09T09:35:52;13.45;;;2.53;;
68256;SDS011;55069;51.568;4.656;2022-09-09T09:38:21;7.00;;;1.83;;
68256;SDS011;55069;51.568;4.656;2022-09-09T09:40:52;9.23;;;2.23;;
68256;SDS011;55069;51.568;4.656;2022-09-09T09:43:28;8.77;;;2.08;;
68256;SDS011;55069;51.568;4.656;2022-09-09T09:45:57;6.05;;;2.15;;
68256;SDS011;55069;51.568;4.656;2022-09-09T09:48:25;8.30;;;2.47;;
68256;SDS011;55069;51.568;4.656;2022-09-09T09:53:28;9.93;;;2.10;;
68256;SDS011;55069;51.568;4.656;2022-09-09T09:56:03;9.85;;;1.83;;
68256;SDS011;55069;51.568;4.656;2022-09-09T10:01:24;6.50;;;2.17;;
68256;SDS011;55069;51.568;4.656;2022-09-09T10:03:54;8.45;;;1.88;;
68256;SDS011;55069;51.568;4.656;2022-09-09T10:06:30;9.70;;;2.40;;
68256;SDS011;55069;51.568;4.656;2022-09-09T10:08:58;9.68;;;2.10;;
68256;SDS011;55069;51.568;4.656;2022-09-09T10:14:21;7.33;;;2.10;;
68256;SDS011;55069;51.568;4.656;2022-09-09T10:17:08;7.50;;;1.83;;
68256;SDS011;55069;51.568;4.656;2022-09-09T10:19:39;7.90;;;2.53;;
68256;SDS011;55069;51.568;4.656;2022-09-09T10:30:18;8.02;;;2.25;;
68256;SDS011;55069;51.568;4.656;2022-09-09T10:32:54;6.97;;;2.40;;
68256;SDS011;55069;51.568;4.656;2022-09-09T10:35:52;11.50;;;2.55;;
68256;SDS011;55069;51.568;4.656;2022-09-09T10:49:34;6.45;;;2.10;;
68256;SDS011;55069;51.568;4.656;2022-09-09T10:57:25;6.30;;;2.60;;
68256;SDS011;55069;51.568;4.656;2022-09-09T10:59:58;8.93;;;2.40;;
68256;SDS011;55069;51.568;4.656;2022-09-09T11:02:30;8.65;;;2.30;;
68256;SDS011;55069;51.568;4.656;2022-09-09T11:05:00;9.18;;;2.60;;
68256;SDS011;55069;51.568;4.656;2022-09-09T11:07:34;16.00;;;2.83;;
68256;SDS011;55069;51.568;4.656;2022-09-09T11:10:14;8.57;;;2.15;;
68256;SDS011;55069;51.568;4.656;2022-09-09T11:12:44;9.30;;;2.35;;
68256;SDS011;55069;51.568;4.656;2022-09-09T11:15:31;10.55;;;2.35;;
68256;SDS011;55069;51.568;4.656;2022-09-09T11:18:01;10.07;;;2.75;;
68256;SDS011;55069;51.568;4.656;2022-09-09T11:20:29;7.53;;;1.90;;
68256;SDS011;55069;51.568;4.656;2022-09-09T11:23:11;10.35;;;2.38;;
68256;SDS011;55069;51.568;4.656;2022-09-09T11:25:43;7.57;;;2.25;;
68256;SDS011;55069;51.568;4.656;2022-09-09T11:28:23;5.60;;;2.35;;
68256;SDS011;55069;51.568;4.656;2022-09-09T11:31:11;9.55;;;1.98;;
68256;SDS011;55069;51.568;4.656;2022-09-09T11:44:38;8.27;;;2.50;;
68256;SDS011;55069;51.568;4.656;2022-09-09T11:47:15;5.68;;;2.45;;
68256;SDS011;55069;51.568;4.656;2022-09-09T11:50:40;9.00;;;2.70;;
68256;SDS011;55069;51.568;4.656;2022-09-09T11:52:42;9.60;;;2.33;;
68256;SDS011;55069;51.568;4.656;2022-09-09T11:55:26;6.70;;;2.15;;
68256;SDS011;55069;51.568;4.656;2022-09-09T11:58:04;8.48;;;2.40;;
68256;SDS011;55069;51.568;4.656;2022-09-09T12:00:40;4.75;;;2.13;;
68256;SDS011;55069;51.568;4.656;2022-09-09T12:05:53;8.93;;;2.50;;
68256;SDS011;55069;51.568;4.656;2022-09-09T12:08:24;8.55;;;2.05;;
68256;SDS011;55069;51.568;4.656;2022-09-09T12:10:57;5.10;;;1.92;;
68256;SDS011;55069;51.568;4.656;2022-09-09T12:13:25;4.63;;;1.75;;
68256;SDS011;55069;51.568;4.656;2022-09-09T12:15:53;8.38;;;2.15;;
68256;SDS011;55069;51.568;4.656;2022-09-09T12:18:24;4.53;;;1.80;;
68256;SDS011;55069;51.568;4.656;2022-09-09T12:21:21;3.85;;;1.63;;
68256;SDS011;55069;51.568;4.656;2022-09-09T12:24:10;4.47;;;1.70;;
68256;SDS011;55069;51.568;4.656;2022-09-09T12:34:32;5.40;;;1.67;;
68256;SDS011;55069;51.568;4.656;2022-09-09T12:39:51;3.75;;;1.50;;
68256;SDS011;55069;51.568;4.656;2022-09-09T12:42:22;4.53;;;1.60;;
68256;SDS011;55069;51.568;4.656;2022-09-09T12:45:02;5.05;;;1.65;;
68256;SDS011;55069;51.568;4.656;2022-09-09T12:50:21;6.18;;;1.83;;
68256;SDS011;55069;51.568;4.656;2022-09-09T12:52:51;6.95;;;1.77;;
68256;SDS011;55069;51.568;4.656;2022-09-09T12:55:23;6.82;;;1.38;;
68256;SDS011;55069;51.568;4.656;2022-09-09T12:57:54;5.43;;;1.55;;
68256;SDS011;55069;51.568;4.656;2022-09-09T13:00:21;5.18;;;1.35;;
68256;SDS011;55069;51.568;4.656;2022-09-09T13:03:14;3.67;;;1.25;;
68256;SDS011;55069;51.568;4.656;2022-09-09T13:05:42;2.58;;;1.10;;
68256;SDS011;55069;51.568;4.656;2022-09-09T13:08:09;4.80;;;1.20;;
68256;SDS011;55069;51.568;4.656;2022-09-09T13:10:40;5.38;;;1.08;;
68256;SDS011;55069;51.568;4.656;2022-09-09T13:13:13;5.13;;;1.10;;
68256;SDS011;55069;51.568;4.656;2022-09-09T13:15:47;3.53;;;0.90;;
68256;SDS011;55069;51.568;4.656;2022-09-09T13:18:21;3.30;;;1.00;;
68256;SDS011;55069;51.568;4.656;2022-09-09T13:20:48;5.85;;;1.02;;
68256;SDS011;55069;51.568;4.656;2022-09-09T13:23:15;5.93;;;1.10;;
68256;SDS011;55069;51.568;4.656;2022-09-09T13:25:58;4.23;;;0.97;;
68256;SDS011;55069;51.568;4.656;2022-09-09T13:28:26;3.05;;;1.00;;
68256;SDS011;55069;51.568;4.656;2022-09-09T13:31:04;5.30;;;1.45;;
68256;SDS011;55069;51.568;4.656;2022-09-09T13:33:38;4.43;;;1.20;;
68256;SDS011;55069;51.568;4.656;2022-09-09T13:36:05;6.20;;;1.05;;
68256;SDS011;55069;51.568;4.656;2022-09-09T13:38:36;5.93;;;1.17;;
68256;SDS011;55069;51.568;4.656;2022-09-09T13:41:06;4.28;;;1.00;;
68256;SDS011;55069;51.568;4.656;2022-09-09T13:46:24;5.53;;;0.90;;
68256;SDS011;55069;51.568;4.656;2022-09-09T13:51:35;5.10;;;1.50;;
68256;SDS011;55069;51.568;4.656;2022-09-09T13:54:06;4.03;;;1.00;;
68256;SDS011;55069;51.568;4.656;2022-09-09T13:56:34;6.60;;;1.40;;
68256;SDS011;55069;51.568;4.656;2022-09-09T13:59:01;4.10;;;1.40;;
68256;SDS011;55069;51.568;4.656;2022-09-09T14:01:27;4.35;;;1.30;;
68256;SDS011;55069;51.568;4.656;2022-09-09T14:03:53;4.27;;;1.20;;
68256;SDS011;55069;51.568;4.656;2022-09-09T14:06:19;4.30;;;1.30;;
68256;SDS011;55069;51.568;4.656;2022-09-09T14:08:47;3.83;;;0.93;;
68256;SDS011;55069;51.568;4.656;2022-09-09T14:11:15;2.90;;;1.00;;
68256;SDS011;55069;51.568;4.656;2022-09-09T14:13:40;2.42;;;1.05;;
68256;SDS011;55069;51.568;4.656;2022-09-09T14:16:06;5.87;;;1.30;;
68256;SDS011;55069;51.568;4.656;2022-09-09T14:18:31;4.47;;;1.20;;
68256;SDS011;55069;51.568;4.656;2022-09-09T14:20:57;3.33;;;1.20;;
68256;SDS011;55069;51.568;4.656;2022-09-09T14:23:23;8.48;;;1.45;;
68256;SDS011;55069;51.568;4.656;2022-09-09T14:25:49;3.75;;;1.33;;
68256;SDS011;55069;51.568;4.656;2022-09-09T14:28:14;4.68;;;1.30;;
68256;SDS011;55069;51.568;4.656;2022-09-09T14:30:40;4.93;;;1.47;;
68256;SDS011;55069;51.568;4.656;2022-09-09T14:33:07;8.05;;;1.63;;
68256;SDS011;55069;51.568;4.656;2022-09-09T14:35:34;7.60;;;1.55;;
68256;SDS011;55069;51.568;4.656;2022-09-09T14:38:01;4.22;;;1.30;;
68256;SDS011;55069;51.568;4.656;2022-09-09T14:40:28;4.78;;;1.60;;
68256;SDS011;55069;51.568;4.656;2022-09-09T14:42:53;5.32;;;1.52;;
68256;SDS011;55069;51.568;4.656;2022-09-09T14:45:19;3.17;;;1.40;;
68256;SDS011;55069;51.568;4.656;2022-09-09T14:47:46;4.50;;;1.35;;
68256;SDS011;55069;51.568;4.656;2022-09-09T14:50:12;3.73;;;1.80;;
68256;SDS011;55069;51.568;4.656;2022-09-09T14:52:38;2.65;;;1.33;;
68256;SDS011;55069;51.568;4.656;2022-09-09T14:55:04;4.15;;;1.58;;
68256;SDS011;55069;51.568;4.656;2022-09-09T14:57:30;2.73;;;1.40;;
68256;SDS011;55069;51.568;4.656;2022-09-09T14:59:56;3.42;;;1.40;;
68256;SDS011;55069;51.568;4.656;2022-09-09T15:02:21;5.10;;;1.40;;
68256;SDS011;55069;51.568;4.656;2022-09-09T15:04:47;4.83;;;1.40;;
68256;SDS011;55069;51.568;4.656;2022-09-09T15:07:15;6.53;;;1.30;;
68256;SDS011;55069;51.568;4.656;2022-09-09T15:09:41;2.60;;;1.38;;
68256;SDS011;55069;51.568;4.656;2022-09-09T15:12:07;2.67;;;1.23;;
68256;SDS011;55069;51.568;4.656;2022-09-09T15:14:33;4.18;;;1.20;;
68256;SDS011;55069;51.568;4.656;2022-09-09T15:17:00;3.55;;;1.10;;
68256;SDS011;55069;51.568;4.656;2022-09-09T15:19:26;5.37;;;1.60;;
68256;SDS011;55069;51.568;4.656;2022-09-09T15:21:52;4.32;;;1.58;;
68256;SDS011;55069;51.568;4.656;2022-09-09T15:24:17;4.97;;;2.00;;
68256;SDS011;55069;51.568;4.656;2022-09-09T15:26:43;4.65;;;1.38;;
68256;SDS011;55069;51.568;4.656;2022-09-09T15:29:09;5.00;;;1.60;;
68256;SDS011;55069;51.568;4.656;2022-09-09T15:31:34;3.90;;;1.63;;
68256;SDS011;55069;51.568;4.656;2022-09-09T15:34:01;3.97;;;1.83;;
68256;SDS011;55069;51.568;4.656;2022-09-09T15:36:29;2.75;;;1.33;;
68256;SDS011;55069;51.568;4.656;2022-09-09T15:38:58;3.63;;;1.42;;
68256;SDS011;55069;51.568;4.656;2022-09-09T15:41:25;5.63;;;1.73;;
68256;SDS011;55069;51.568;4.656;2022-09-09T15:43:51;4.07;;;1.40;;
68256;SDS011;55069;51.568;4.656;2022-09-09T15:46:23;5.63;;;1.38;;
68256;SDS011;55069;51.568;4.656;2022-09-09T15:48:53;5.53;;;1.80;;
68256;SDS011;55069;51.568;4.656;2022-09-09T15:51:23;4.57;;;1.50;;
68256;SDS011;55069;51.568;4.656;2022-09-09T15:53:53;4.82;;;1.70;;
68256;SDS011;55069;51.568;4.656;2022-09-09T15:56:21;3.87;;;1.50;;
68256;SDS011;55069;51.568;4.656;2022-09-09T15:58:47;2.60;;;1.17;;
68256;SDS011;55069;51.568;4.656;2022-09-09T16:01:13;7.70;;;1.87;;
68256;SDS011;55069;51.568;4.656;2022-09-09T16:03:39;5.28;;;1.67;;
68256;SDS011;55069;51.568;4.656;2022-09-09T16:06:15;4.72;;;1.60;;
68256;SDS011;55069;51.568;4.656;2022-09-09T16:08:52;5.77;;;1.37;;
68256;SDS011;55069;51.568;4.656;2022-09-09T16:11:25;5.10;;;1.30;;
68256;SDS011;55069;51.568;4.656;2022-09-09T16:13:53;3.97;;;1.30;;
68256;SDS011;55069;51.568;4.656;2022-09-09T16:16:21;6.95;;;1.48;;
68256;SDS011;55069;51.568;4.656;2022-09-09T16:18:56;4.32;;;1.10;;
68256;SDS011;55069;51.568;4.656;2022-09-09T16:23:51;4.47;;;1.40;;
68256;SDS011;55069;51.568;4.656;2022-09-09T16:26:21;3.90;;;1.73;;
68256;SDS011;55069;51.568;4.656;2022-09-09T16:28:47;3.08;;;1.50;;
68256;SDS011;55069;51.568;4.656;2022-09-09T16:31:19;4.30;;;1.55;;
68256;SDS011;55069;51.568;4.656;2022-09-09T16:33:48;3.57;;;1.30;;
68256;SDS011;55069;51.568;4.656;2022-09-09T16:36:16;5.88;;;1.73;;
68256;SDS011;55069;51.568;4.656;2022-09-09T16:38:44;7.32;;;1.75;;
68256;SDS011;55069;51.568;4.656;2022-09-09T16:41:10;5.18;;;1.35;;
68256;SDS011;55069;51.568;4.656;2022-09-09T16:43:37;5.38;;;1.50;;
68256;SDS011;55069;51.568;4.656;2022-09-09T16:46:03;4.97;;;1.40;;
68256;SDS011;55069;51.568;4.656;2022-09-09T16:48:37;4.65;;;1.55;;
68256;SDS011;55069;51.568;4.656;2022-09-09T16:51:04;8.63;;;2.10;;
68256;SDS011;55069;51.568;4.656;2022-09-09T16:53:31;7.88;;;1.60;;
68256;SDS011;55069;51.568;4.656;2022-09-09T16:55:57;6.63;;;1.45;;
68256;SDS011;55069;51.568;4.656;2022-09-09T16:58:23;5.20;;;1.63;;
68256;SDS011;55069;51.568;4.656;2022-09-09T17:00:49;8.38;;;1.50;;
68256;SDS011;55069;51.568;4.656;2022-09-09T17:03:16;2.88;;;1.13;;
68256;SDS011;55069;51.568;4.656;2022-09-09T17:05:42;9.82;;;1.75;;
68256;SDS011;55069;51.568;4.656;2022-09-09T17:08:08;5.25;;;1.52;;
68256;SDS011;55069;51.568;4.656;2022-09-09T17:10:34;4.78;;;1.30;;
68256;SDS011;55069;51.568;4.656;2022-09-09T17:13:05;9.73;;;1.75;;